Footsville, North Carolina
Current Conditions -  °F | °C
As of 11:54 AM on Thursday 18 Dec 2014 (Local Time) from KINT Reporting Station
Overcast Overcast  
Wind Chill: 39°   Ceiling: 9500
Heat Index: 43°   Visibility: 10mi
Dew Point: 20°   Wind: 6mph
Humidity: 40%   Direction: 10°N
Pressure: 30.15"   Gusts: NA
Location:  36.1267°N, 80.6582°W
Report Text: KINT 181654Z 01005KT 10SM OVC095 06/M07 A3015 RMK AO2 SLP212 T00611067
Loading
Personal Weather Stations






























Interactive Weather Map New forecast layout! Learn more

10-Day Weather Forecast

Advertisements
Track Severe Weather on mobile